Saint Augusta, Minnesota
Current Conditions -  °F | °C
As of 5:55 AM on Thursday 23 Oct 2014 (Local Time) from KMGG Reporting Station
Overcast Overcast  
Wind Chill: 55°   Ceiling: 700
Heat Index: 55°   Visibility: 10mi
Dew Point: 55°   Wind: 6mph
Humidity: 98%   Direction: 240°WSW
Pressure: 29.98"   Gusts: NA
Location:  45.3547°N, 94.3058°W
Report Text: KMGG 231055Z AUTO 24005KT 10SM OVC007 13/13 A2998 RMK AO2 P0002 T01280125
Loading
Personal Weather Stations






























Interactive Weather Map
Tropical Storm Tracking
New forecast layout! Learn more

10-Day Weather Forecast

Advertisements
Track Severe Weather on mobile